createdAt,value
2023-01-17T00:05:58.775Z,7.18
2023-01-17T00:12:05.721Z,5.65
2023-01-17T00:18:08.146Z,4.88
2023-01-17T00:24:29.292Z,5.65
2023-01-17T00:30:31.768Z,5.85
2023-01-17T00:36:34.339Z,6.00
2023-01-17T00:42:36.668Z,5.65
2023-01-17T00:48:57.830Z,6.00
2023-01-17T00:55:18.677Z,5.03
2023-01-17T01:01:39.987Z,4.47
2023-01-17T01:08:01.253Z,5.05
2023-01-17T01:14:23.412Z,5.28
2023-01-17T01:20:44.797Z,5.05
2023-01-17T01:27:05.740Z,4.80
2023-01-17T01:33:20.290Z,4.35
2023-01-17T01:39:22.651Z,3.85
2023-01-17T01:45:27.865Z,3.55
2023-01-17T01:51:39.037Z,3.65
2023-01-17T01:57:46.062Z,3.55
2023-01-17T02:03:49.672Z,2.92
2023-01-17T02:09:52.781Z,3.28
2023-01-17T02:16:14.049Z,2.63
2023-01-17T02:22:37.899Z,2.90
2023-01-17T02:28:43.399Z,2.97
2023-01-17T02:35:28.581Z,3.58
2023-01-17T02:41:39.465Z,3.83
2023-01-17T02:47:41.755Z,4.40
2023-01-17T02:54:04.965Z,3.75
2023-01-17T03:00:14.957Z,4.07
2023-01-17T03:06:25.886Z,3.47
2023-01-17T03:12:33.836Z,2.80
2023-01-17T03:18:35.677Z,3.22
2023-01-17T03:24:38.057Z,2.17
2023-01-17T03:30:40.703Z,2.40
2023-01-17T03:36:42.848Z,2.10
2023-01-17T03:42:45.877Z,2.00
2023-01-17T03:48:48.255Z,1.30
2023-01-17T03:54:50.217Z,1.10
2023-01-17T04:00:52.319Z,0.80
2023-01-17T04:06:54.742Z,0.65
2023-01-17T04:12:57.335Z,0.55
2023-01-17T04:18:59.770Z,0.40
2023-01-17T04:25:01.943Z,0.50
2023-01-17T04:31:04.004Z,0.43
2023-01-17T04:37:06.099Z,0.93
2023-01-17T04:43:08.238Z,1.05
2023-01-17T04:49:10.447Z,0.50
2023-01-17T04:55:12.451Z,0.20
2023-01-17T05:01:14.536Z,0.40
2023-01-17T05:07:16.541Z,0.15
2023-01-17T05:13:18.715Z,0.20
2023-01-17T05:19:21.055Z,0.30
2023-01-17T05:25:31.048Z,0.30
2023-01-17T05:31:33.325Z,0.10
2023-01-17T05:37:35.338Z,0.32
2023-01-17T05:43:37.610Z,0.47
2023-01-17T05:49:39.399Z,1.20
2023-01-17T05:55:41.970Z,1.10
2023-01-17T06:01:43.940Z,0.80
2023-01-17T06:07:46.484Z,0.52
2023-01-17T06:13:50.332Z,0.50
2023-01-17T06:19:52.206Z,0.33
2023-01-17T06:25:54.005Z,0.70
2023-01-17T06:31:55.793Z,0.65
2023-01-17T06:37:59.800Z,0.50
2023-01-17T06:44:01.843Z,0.50
2023-01-17T06:50:03.850Z,1.05
2023-01-17T06:56:06.349Z,0.90
2023-01-17T07:02:11.271Z,0.90
2023-01-17T07:08:13.459Z,1.10
2023-01-17T07:14:15.391Z,1.30
2023-01-17T07:20:18.357Z,2.08
2023-01-17T07:26:20.661Z,1.63
2023-01-17T07:32:22.420Z,1.55
2023-01-17T07:38:24.356Z,1.50
2023-01-17T07:44:27.128Z,1.35
2023-01-17T07:50:29.375Z,1.95
2023-01-17T07:56:33.370Z,1.70
2023-01-17T08:02:35.263Z,1.60
2023-01-17T08:08:37.171Z,2.33
2023-01-17T08:14:39.397Z,1.92
2023-01-17T08:20:45.991Z,2.22
2023-01-17T08:26:47.737Z,3.10
2023-01-17T08:32:49.542Z,3.25
2023-01-17T08:38:52.849Z,3.53
2023-01-17T08:44:54.641Z,3.78
2023-01-17T08:51:01.358Z,3.42
2023-01-17T08:57:05.172Z,3.08
2023-01-17T09:03:10.448Z,2.90
2023-01-17T09:09:13.672Z,2.90
2023-01-17T09:15:20.266Z,3.10
2023-01-17T09:21:22.462Z,2.63
2023-01-17T09:27:24.631Z,3.05
2023-01-17T09:33:26.610Z,2.90
2023-01-17T09:39:28.367Z,3.05
2023-01-17T09:45:32.880Z,2.80
2023-01-17T09:51:35.909Z,3.00
2023-01-17T09:58:02.805Z,3.28
2023-01-17T10:04:35.803Z,2.90
2023-01-17T10:10:55.336Z,2.90
2023-01-17T10:17:17.287Z,2.95
2023-01-17T10:23:36.895Z,2.53
2023-01-17T10:29:39.435Z,2.42
2023-01-17T10:35:53.377Z,2.85
2023-01-17T10:42:02.219Z,3.20
2023-01-17T10:48:16.782Z,2.40
2023-01-17T10:54:27.287Z,2.92
2023-01-17T11:00:47.870Z,3.15
2023-01-17T11:07:13.567Z,3.00
2023-01-17T11:13:24.897Z,3.70
2023-01-17T11:19:36.225Z,3.65
2023-01-17T11:25:39.140Z,4.60
2023-01-17T11:31:41.091Z,4.10
2023-01-17T11:37:51.861Z,4.30
2023-01-17T11:43:59.307Z,3.83
2023-01-17T11:50:02.290Z,4.68
2023-01-17T11:56:30.495Z,4.55
2023-01-17T12:03:04.658Z,4.93
2023-01-17T12:09:23.603Z,4.65
2023-01-17T12:16:25.409Z,4.85
2023-01-17T12:22:34.126Z,4.78
2023-01-17T12:29:03.502Z,5.13
2023-01-17T12:35:20.845Z,5.38
2023-01-17T12:41:31.120Z,5.00
2023-01-17T12:47:37.816Z,4.63
2023-01-17T12:53:59.566Z,4.43
2023-01-17T13:00:19.529Z,4.60
2023-01-17T13:06:59.437Z,4.72
2023-01-17T13:13:20.355Z,5.15
2023-01-17T13:19:52.777Z,5.72
2023-01-17T13:25:57.496Z,6.15
2023-01-17T13:39:06.686Z,6.97
2023-01-17T13:45:21.222Z,6.00
2023-01-17T13:52:01.563Z,6.57
2023-01-17T13:58:03.626Z,6.50
2023-01-17T14:04:09.158Z,6.10
2023-01-17T14:10:41.669Z,6.07
2023-01-17T14:16:45.484Z,6.22
2023-01-17T14:22:55.772Z,6.28
2023-01-17T14:29:18.896Z,5.63
2023-01-17T14:35:22.875Z,6.60
2023-01-17T14:41:29.411Z,8.10
2023-01-17T14:47:33.705Z,7.57
2023-01-17T14:53:35.523Z,8.20
2023-01-17T14:59:37.364Z,7.70
2023-01-17T15:05:46.067Z,8.20
2023-01-17T15:11:50.682Z,9.68
2023-01-17T15:17:53.920Z,9.35
2023-01-17T15:23:58.591Z,9.00
2023-01-17T15:30:04.137Z,8.38
2023-01-17T15:36:28.780Z,9.18
2023-01-17T15:42:31.952Z,8.15
2023-01-17T15:48:39.204Z,8.13
2023-01-17T15:54:56.170Z,9.07
2023-01-17T16:00:59.248Z,8.70
2023-01-17T16:07:21.789Z,8.45
2023-01-17T16:13:23.853Z,7.75
2023-01-17T16:19:27.016Z,8.73
2023-01-17T16:25:32.545Z,8.75
2023-01-17T16:31:34.355Z,9.65
2023-01-17T16:37:36.312Z,9.35
2023-01-17T16:43:38.201Z,9.02
2023-01-17T16:49:40.114Z,9.35
2023-01-17T16:55:44.606Z,9.77
2023-01-17T17:01:47.716Z,9.20
2023-01-17T17:07:52.650Z,9.38
2023-01-17T17:13:55.291Z,8.85
2023-01-17T17:19:57.448Z,8.70
2023-01-17T17:25:59.520Z,8.27
2023-01-17T17:32:01.288Z,8.00
2023-01-17T17:38:05.513Z,7.55
2023-01-17T17:44:07.423Z,8.52
2023-01-17T17:50:14.982Z,9.23
2023-01-17T17:56:17.513Z,8.52
2023-01-17T18:02:19.606Z,8.70
2023-01-17T18:08:21.799Z,8.10
2023-01-17T18:14:24.485Z,8.40
2023-01-17T18:20:26.727Z,8.18
2023-01-17T18:26:37.412Z,7.50
2023-01-17T18:32:39.588Z,8.50
2023-01-17T18:38:44.395Z,9.07
2023-01-17T18:44:46.183Z,8.02
2023-01-17T18:51:02.404Z,7.38
2023-01-17T18:57:04.573Z,6.57
2023-01-17T19:03:06.411Z,7.53
2023-01-17T19:09:10.755Z,7.15
2023-01-17T19:15:12.621Z,7.50
2023-01-17T19:21:17.635Z,6.82
2023-01-17T19:27:19.529Z,7.35
2023-01-17T19:33:21.454Z,7.43
2023-01-17T19:39:25.540Z,6.45
2023-01-17T19:45:27.964Z,7.63
2023-01-17T19:51:30.059Z,7.28
2023-01-17T19:57:35.437Z,7.53
2023-01-17T20:03:38.508Z,6.80
2023-01-17T20:09:40.424Z,6.85
2023-01-17T20:15:42.151Z,6.97
2023-01-17T20:21:43.928Z,6.32
2023-01-17T20:27:45.711Z,7.03
2023-01-17T20:33:50.497Z,7.63
2023-01-17T20:39:54.083Z,7.82
2023-01-17T20:45:56.105Z,7.80
2023-01-17T20:52:00.011Z,6.95
2023-01-17T20:58:01.874Z,7.63
2023-01-17T21:04:04.687Z,7.20
2023-01-17T21:10:06.701Z,7.63
2023-01-17T21:16:10.459Z,7.60
2023-01-17T21:22:15.000Z,8.05
2023-01-17T21:28:16.914Z,8.48
2023-01-17T21:34:18.789Z,8.30
2023-01-17T21:40:20.556Z,7.72
2023-01-17T21:46:22.973Z,8.55
2023-01-17T21:52:25.003Z,8.75
2023-01-17T21:58:45.297Z,8.35
2023-01-17T22:04:47.203Z,8.93
2023-01-17T22:10:49.123Z,8.40
2023-01-17T22:16:51.907Z,8.40
2023-01-17T22:22:53.772Z,8.75
2023-01-17T22:28:56.490Z,9.82
2023-01-17T22:34:58.314Z,9.55
2023-01-17T22:41:08.011Z,10.15
2023-01-17T22:47:09.906Z,9.18
2023-01-17T22:53:11.827Z,9.75
2023-01-17T22:59:13.758Z,10.07
2023-01-17T23:05:15.702Z,12.15
2023-01-17T23:11:41.054Z,9.70
2023-01-17T23:18:01.464Z,9.50
2023-01-17T23:24:03.654Z,9.20
2023-01-17T23:30:17.895Z,10.07
2023-01-17T23:36:19.773Z,8.98
2023-01-17T23:42:40.257Z,9.27
2023-01-17T23:48:42.051Z,9.77
2023-01-17T23:54:43.876Z,9.43
